Time;durP1;ratioP1;P1;durP2;ratioP2;P2;SDS_P1;SDS_P2;PMS_P1;PMS_P2;Temp;Humidity;BMP_temperature;BMP_pressure;BME280_temperature;BME280_humidity;BME280_pressure;Samples;Min_cycle;Max_cycle;Signal;HPM_P1;HPM_P2
2023/04/20 00:01:52;;;;;;;0.20;0.20;;;;;;;13.88;32.49;102469.66;5085273;28;20127;-65
2023/04/20 00:04:18;;;;;;;0.20;0.20;;;;;;;14.06;31.86;102461.75;5092114;28;20496;-64
2023/04/20 00:06:44;;;;;;;0.32;0.32;;;;;;;13.44;33.31;102461.28;5066718;28;20032;-65
2023/04/20 00:09:11;;;;;;;0.20;0.20;;;;;;;13.94;32.78;102451.75;5080445;28;20032;-66
2023/04/20 00:11:37;;;;;;;0.20;0.20;;;;;;;13.87;32.32;102449.09;5091443;28;20035;-66
2023/04/20 00:14:03;;;;;;;0.17;0.17;;;;;;;13.85;32.97;102439.50;5061159;28;20040;-64
2023/04/20 00:16:28;;;;;;;0.20;0.20;;;;;;;14.07;33.03;102443.66;5071495;28;20496;-64
2023/04/20 00:18:54;;;;;;;0.20;0.20;;;;;;;13.82;33.61;102432.66;5071180;28;20131;-65
2023/04/20 00:21:22;;;;;;;0.20;0.20;;;;;;;14.64;32.37;102435.66;5071211;28;20047;-65
2023/04/20 00:23:48;;;;;;;0.20;0.20;;;;;;;14.05;33.93;102434.94;5071285;28;20036;-65
2023/04/20 00:26:13;;;;;;;0.15;0.15;;;;;;;13.82;33.97;102421.84;5089206;28;20085;-65
2023/04/20 00:28:39;;;;;;;0.20;0.20;;;;;;;14.01;34.23;102420.19;5082652;28;20036;-66
2023/04/20 00:31:04;;;;;;;0.10;0.10;;;;;;;13.81;35.24;102416.66;5071541;28;20025;-65
2023/04/20 00:33:30;;;;;;;0.20;0.20;;;;;;;13.97;35.02;102419.75;5070912;28;20080;-66
2023/04/20 00:35:55;;;;;;;0.20;0.20;;;;;;;13.49;35.51;102410.19;5067394;28;20040;-64
2023/04/20 00:38:20;;;;;;;0.20;0.20;;;;;;;13.85;35.83;102418.72;5071068;28;20499;-65
2023/04/20 00:40:51;;;;;;;0.25;0.25;;;;;;;14.20;35.12;102411.19;5070831;28;20033;-65
2023/04/20 00:43:17;;;;;;;;;;;;;;;14.43;35.78;102403.47;5072444;28;20155;-64
2023/04/20 00:45:42;;;;;;;0.20;0.20;;;;;;;13.33;37.33;102401.63;5071061;28;20376;-66
2023/04/20 00:48:07;;;;;;;0.10;0.10;;;;;;;14.29;36.32;102395.63;5070924;28;20128;-65
2023/04/20 00:50:33;;;;;;;0.17;0.17;;;;;;;13.88;37.11;102393.13;5071052;28;20120;-66
2023/04/20 00:53:00;;;;;;;0.20;0.20;;;;;;;13.28;38.38;102386.06;5052243;28;20044;-65
2023/04/20 00:55:27;;;;;;;0.22;0.22;;;;;;;13.15;38.64;102388.72;5071762;28;20029;-64
2023/04/20 00:57:52;;;;;;;0.25;0.25;;;;;;;13.93;37.18;102386.09;5070652;28;20044;-65
2023/04/20 01:00:17;;;;;;;0.20;0.20;;;;;;;12.47;40.94;102381.59;5070735;28;20265;-66
2023/04/20 01:02:43;;;;;;;0.20;0.20;;;;;;;13.16;39.63;102369.63;5070741;28;20025;-65
2023/04/20 01:05:09;;;;;;;0.10;0.10;;;;;;;14.27;37.27;102367.94;5070637;28;20032;-65
2023/04/20 01:07:35;;;;;;;0.10;0.10;;;;;;;13.99;37.61;102363.59;5052515;28;20086;-65
2023/04/20 01:10:01;;;;;;;0.20;0.20;;;;;;;12.89;40.12;102361.66;5070239;28;20068;-65
2023/04/20 01:12:26;;;;;;;0.30;0.30;;;;;;;13.23;40.21;102353.44;5070825;28;20467;-65
2023/04/20 01:14:51;;;;;;;0.25;0.25;;;;;;;13.20;39.67;102351.16;5074217;28;20040;-66
2023/04/20 01:17:19;;;;;;;0.20;0.20;;;;;;;13.60;39.03;102339.31;5074169;28;20039;-65
2023/04/20 01:19:44;;;;;;;0.30;0.30;;;;;;;13.07;40.53;102343.06;5074097;28;20032;-65
2023/04/20 01:22:17;;;;;;;0.10;0.10;;;;;;;13.95;38.60;102342.63;5074687;28;20025;-65
2023/04/20 01:24:42;;;;;;;0.20;0.20;;;;;;;14.05;38.68;102341.13;5074313;28;20043;-66
2023/04/20 01:27:08;;;;;;;0.10;0.10;;;;;;;13.77;39.02;102334.34;5074006;28;20032;-66
2023/04/20 01:29:33;;;;;;;0.20;0.20;;;;;;;13.62;39.88;102331.03;5089827;28;20123;-67
2023/04/20 01:31:59;;;;;;;0.20;0.20;;;;;;;13.05;41.42;102324.34;5094767;28;20036;-65
2023/04/20 01:34:24;;;;;;;0.20;0.20;;;;;;;13.85;40.48;102331.41;5092181;28;20028;-65
2023/04/20 01:36:50;;;;;;;0.30;0.30;;;;;;;14.04;39.34;102314.31;5074071;28;20120;-66
2023/04/20 01:39:16;;;;;;;0.20;0.20;;;;;;;14.07;40.23;102320.13;5074145;28;20040;-66
2023/04/20 01:41:41;;;;;;;0.35;0.35;;;;;;;14.17;39.11;102311.56;5073962;28;20465;-65
2023/04/20 01:44:06;;;;;;;0.15;0.15;;;;;;;13.72;40.49;102302.53;5073899;28;20040;-66
2023/04/20 01:46:32;;;;;;;0.30;0.30;;;;;;;13.94;40.03;102306.66;5056608;28;20109;-66
2023/04/20 01:48:57;;;;;;;0.20;0.20;;;;;;;13.47;41.30;102293.44;5073883;28;20036;-67
2023/04/20 01:51:22;;;;;;;0.20;0.20;;;;;;;13.84;41.74;102287.34;5073740;28;20037;-66
2023/04/20 01:53:48;;;;;;;0.20;0.20;;;;;;;14.00;40.55;102289.59;5073763;28;20028;-65
2023/04/20 01:56:13;;;;;;;0.20;0.20;;;;;;;12.97;44.14;102291.31;5073878;28;20119;-67
2023/04/20 01:58:38;;;;;;;0.10;0.10;;;;;;;13.16;43.71;102285.13;5073800;28;20029;-67
2023/04/20 02:01:04;;;;;;;0.28;0.28;;;;;;;14.36;40.84;102272.03;5073727;28;20119;-67
2023/04/20 02:03:29;;;;;;;0.30;0.30;;;;;;;14.02;41.32;102273.16;5073747;28;20044;-66
2023/04/20 02:05:55;;;;;;;0.10;0.10;;;;;;;13.75;42.47;102260.78;5073686;28;20131;-66
2023/04/20 02:08:20;;;;;;;0.20;0.20;;;;;;;13.68;42.25;102259.97;5073639;28;20075;-66
2023/04/20 02:10:46;;;;;;;0.20;0.20;;;;;;;13.49;43.22;102258.09;5073577;28;20078;-66
2023/04/20 02:13:11;;;;;;;0.10;0.10;;;;;;;14.40;40.68;102249.75;5074487;28;20032;-65
2023/04/20 02:15:37;;;;;;;0.13;0.13;;;;;;;14.64;39.80;102246.25;5073631;28;20036;-67
2023/04/20 02:18:03;;;;;;;0.20;0.20;;;;;;;14.39;40.44;102239.13;5073470;28;20536;-66
2023/04/20 02:20:28;;;;;;;0.20;0.20;;;;;;;13.64;42.70;102237.91;5073429;28;20044;-66
2023/04/20 02:22:54;;;;;;;0.20;0.20;;;;;;;13.55;43.36;102232.97;5073272;28;20032;-65
2023/04/20 02:25:19;;;;;;;0.20;0.20;;;;;;;13.82;42.95;102224.59;5073069;28;20024;-66
2023/04/20 02:27:45;;;;;;;0.10;0.10;;;;;;;13.89;42.05;102227.28;5071971;28;20041;-66
2023/04/20 02:30:11;;;;;;;0.20;0.20;;;;;;;13.59;42.91;102228.81;5035105;28;20138;-66
2023/04/20 02:32:36;;;;;;;0.22;0.22;;;;;;;13.57;43.07;102212.81;5053241;28;20477;-65
2023/04/20 02:35:03;;;;;;;0.10;0.10;;;;;;;13.54;43.44;102225.91;5060778;28;20035;-67
2023/04/20 02:37:29;;;;;;;0.30;0.30;;;;;;;14.48;41.26;102210.81;5073802;28;20066;-65
2023/04/20 02:39:54;;;;;;;0.20;0.20;;;;;;;14.70;40.84;102209.41;5073094;28;20400;-66
2023/04/20 02:42:20;;;;;;;0.13;0.13;;;;;;;13.99;41.66;102208.72;5073038;28;20067;-65
2023/04/20 02:44:45;;;;;;;0.28;0.28;;;;;;;13.79;43.10;102216.91;5072904;28;20103;-67
2023/04/20 02:47:10;;;;;;;0.20;0.20;;;;;;;14.90;40.58;102208.19;5072828;28;20064;-65
2023/04/20 02:49:36;;;;;;;0.15;0.15;;;;;;;14.02;41.99;102208.28;5073130;28;20115;-67
2023/04/20 02:52:01;;;;;;;0.20;0.20;;;;;;;13.98;42.42;102205.19;5072595;28;20115;-67
2023/04/20 02:54:27;;;;;;;0.30;0.30;;;;;;;14.83;41.37;102190.38;5073037;28;20048;-66
2023/04/20 02:56:52;;;;;;;0.10;0.10;;;;;;;15.42;39.88;102196.09;5072954;28;20060;-65
2023/04/20 02:59:17;;;;;;;0.10;0.10;;;;;;;14.38;41.46;102205.88;5072767;28;20056;-65
2023/04/20 03:01:43;;;;;;;0.30;0.30;;;;;;;14.87;40.28;102197.00;5072083;28;20063;-66
2023/04/20 03:04:08;;;;;;;0.20;0.20;;;;;;;14.47;41.46;102203.72;5073527;28;20047;-66
2023/04/20 03:06:35;;;;;;;0.10;0.10;;;;;;;14.50;41.35;102196.03;5072493;28;20047;-66
2023/04/20 03:09:01;;;;;;;0.20;0.20;;;;;;;13.58;43.70;102194.75;5074118;28;20066;-66
2023/04/20 03:11:26;;;;;;;0.10;0.10;;;;;;;14.46;41.79;102193.97;5074570;28;20028;-67
2023/04/20 03:13:51;;;;;;;0.20;0.20;;;;;;;14.26;42.13;102185.94;5072429;28;20115;-67
2023/04/20 03:16:18;;;;;;;0.10;0.10;;;;;;;14.17;42.57;102187.22;5073071;28;20039;-66
2023/04/20 03:18:43;;;;;;;0.10;0.10;;;;;;;14.19;43.45;102185.13;5074119;28;20116;-66
2023/04/20 03:21:08;;;;;;;0.10;0.10;;;;;;;14.38;42.29;102180.69;5075948;28;20105;-66
2023/04/20 03:23:33;;;;;;;0.20;0.20;;;;;;;13.53;44.98;102179.16;5075087;28;20381;-65
2023/04/20 03:26:00;;;;;;;0.30;0.30;;;;;;;14.65;41.86;102169.47;5075662;28;20438;-66
2023/04/20 03:28:25;;;;;;;0.20;0.20;;;;;;;13.96;43.97;102172.16;5068547;28;20552;-66
2023/04/20 03:30:51;;;;;;;0.20;0.20;;;;;;;13.63;45.26;102174.16;5054865;28;20075;-66
2023/04/20 03:33:16;;;;;;;0.30;0.30;;;;;;;13.53;45.33;102168.34;5055714;28;20057;-65
2023/04/20 03:35:41;;;;;;;0.30;0.30;;;;;;;14.44;43.44;102164.44;5067781;28;20094;-66
2023/04/20 03:38:07;;;;;;;0.10;0.10;;;;;;;13.97;44.71;102160.28;5072830;28;20463;-68
2023/04/20 03:40:33;;;;;;;0.20;0.20;;;;;;;15.01;42.72;102155.22;5073084;28;20380;-65
2023/04/20 03:42:58;;;;;;;0.20;0.20;;;;;;;13.87;44.74;102153.69;5072394;28;20028;-67
2023/04/20 03:45:23;;;;;;;0.20;0.20;;;;;;;13.76;45.56;102157.03;5072333;28;20056;-67
2023/04/20 03:47:49;;;;;;;0.20;0.20;;;;;;;14.22;45.07;102160.38;5053273;28;20099;-65
2023/04/20 03:50:15;;;;;;;0.10;0.10;;;;;;;14.46;44.71;102151.53;5072185;28;20067;-65
2023/04/20 03:52:40;;;;;;;0.20;0.20;;;;;;;14.94;43.13;102138.22;5072147;28;20031;-64
2023/04/20 03:55:06;;;;;;;0.10;0.10;;;;;;;13.51;47.04;102151.53;5072136;28;20099;-66
2023/04/20 03:57:32;;;;;;;0.20;0.20;;;;;;;13.40;47.83;102149.50;5071375;28;20048;-65
2023/04/20 03:59:58;;;;;;;0.10;0.10;;;;;;;13.59;46.64;102132.41;5051644;28;20045;-66
2023/04/20 04:02:23;;;;;;;0.10;0.10;;;;;;;13.43;47.84;102148.22;5059452;28;20043;-67
2023/04/20 04:04:49;;;;;;;0.30;0.30;;;;;;;13.54;47.37;102143.00;5070987;28;20121;-66
2023/04/20 04:07:14;;;;;;;0.20;0.20;;;;;;;13.66;47.28;102143.19;5071914;28;20033;-66
2023/04/20 04:09:39;;;;;;;0.20;0.20;;;;;;;14.35;45.73;102145.97;5070476;28;20116;-66
2023/04/20 04:12:05;;;;;;;0.30;0.30;;;;;;;14.15;46.34;102135.25;5052163;28;20045;-66
2023/04/20 04:14:32;;;;;;;0.20;0.20;;;;;;;14.64;45.13;102137.25;5070873;28;20078;-65
2023/04/20 04:16:57;;;;;;;0.20;0.20;;;;;;;13.79;46.39;102124.22;5071000;28;20097;-66
2023/04/20 04:19:23;;;;;;;0.10;0.10;;;;;;;13.87;46.43;102132.06;5071410;28;20029;-67
2023/04/20 04:21:48;;;;;;;0.20;0.20;;;;;;;13.61;47.46;102124.06;5070969;28;20070;-65
2023/04/20 04:24:14;;;;;;;0.20;0.20;;;;;;;14.44;45.80;102121.16;5070687;28;20041;-65
2023/04/20 04:26:39;;;;;;;0.22;0.22;;;;;;;14.45;44.51;102124.66;5070989;28;20062;-66
2023/04/20 04:29:05;;;;;;;0.20;0.20;;;;;;;14.71;44.62;102122.59;5058827;28;20051;-66
2023/04/20 04:31:31;;;;;;;0.10;0.10;;;;;;;14.91;42.64;102108.88;5052431;28;20028;-64
2023/04/20 04:33:57;;;;;;;0.20;0.20;;;;;;;14.25;44.79;102111.25;5071090;28;20044;-65
2023/04/20 04:36:23;;;;;;;0.17;0.17;;;;;;;14.50;43.60;102111.34;5071206;28;20127;-67
2023/04/20 04:38:48;;;;;;;0.20;0.20;;;;;;;15.17;42.24;102108.63;5071092;28;20037;-66
2023/04/20 04:41:14;;;;;;;0.20;0.20;;;;;;;15.01;41.84;102095.69;5052755;28;20097;-66
2023/04/20 04:43:41;;;;;;;0.30;0.30;;;;;;;15.29;40.96;102111.41;5071147;28;20603;-66
2023/04/20 04:46:12;;;;;;;0.20;0.20;;;;;;;15.92;38.83;102112.72;5070552;28;20365;-67
2023/04/20 04:48:39;;;;;;;0.20;0.20;;;;;;;15.01;39.92;102105.66;5071150;28;20047;-65
2023/04/20 04:51:05;;;;;;;0.10;0.10;;;;;;;15.42;39.21;102109.41;5073166;28;20462;-65
2023/04/20 04:53:30;;;;;;;0.20;0.20;;;;;;;16.31;37.19;102119.50;5073493;28;20496;-66
2023/04/20 04:55:55;;;;;;;0.20;0.20;;;;;;;15.21;39.20;102112.56;5073058;28;20112;-66
2023/04/20 04:58:21;;;;;;;0.17;0.17;;;;;;;15.00;38.40;102110.25;5074003;28;20099;-66
2023/04/20 05:00:47;;;;;;;0.22;0.20;;;;;;;14.48;38.25;102119.66;5071896;28;20040;-66
2023/04/20 05:03:12;;;;;;;0.20;0.20;;;;;;;14.72;38.04;102102.59;5072661;28;20040;-66
2023/04/20 05:05:37;;;;;;;0.20;0.20;;;;;;;14.90;37.90;102110.75;5074354;28;20036;-66
2023/04/20 05:08:03;;;;;;;0.10;0.10;;;;;;;15.47;36.27;102112.25;5072391;28;20123;-65
2023/04/20 05:10:28;;;;;;;0.10;0.10;;;;;;;15.25;37.18;102107.50;5074032;28;20104;-66
2023/04/20 05:12:54;;;;;;;0.10;0.10;;;;;;;15.21;36.99;102104.44;5074145;28;20059;-66
2023/04/20 05:15:20;;;;;;;0.13;0.13;;;;;;;15.28;37.06;102105.16;5070843;28;20505;-66
2023/04/20 05:17:45;;;;;;;0.20;0.20;;;;;;;15.27;37.03;102114.34;5072743;28;20036;-65
2023/04/20 05:20:11;;;;;;;0.10;0.10;;;;;;;15.54;36.77;102114.91;5072958;28;20109;-65
2023/04/20 05:22:37;;;;;;;0.20;0.20;;;;;;;15.64;36.84;102107.06;5073632;28;20024;-67
2023/04/20 05:25:03;;;;;;;0.10;0.10;;;;;;;15.71;36.73;102110.50;5077757;28;20029;-66
2023/04/20 05:27:29;;;;;;;0.20;0.20;;;;;;;15.33;37.53;102112.63;5072594;28;20055;-65
2023/04/20 05:29:55;;;;;;;0.10;0.10;;;;;;;15.47;37.86;102111.44;5072459;28;20485;-65
2023/04/20 05:32:20;;;;;;;0.20;0.20;;;;;;;14.65;39.69;102118.06;5070498;28;20033;-65
2023/04/20 05:34:45;;;;;;;0.10;0.10;;;;;;;14.76;38.92;102128.16;5079774;28;20103;-66
2023/04/20 05:37:11;;;;;;;0.10;0.10;;;;;;;15.12;38.22;102123.88;5074629;28;20200;-66
2023/04/20 05:39:36;;;;;;;0.20;0.20;;;;;;;15.23;38.63;102120.44;5073712;28;20166;-65
2023/04/20 05:42:02;;;;;;;0.20;0.20;;;;;;;15.24;38.62;102125.63;5073926;28;20127;-66
2023/04/20 05:44:27;;;;;;;0.20;0.20;;;;;;;15.01;38.71;102121.91;5074188;28;20028;-66
2023/04/20 05:46:52;;;;;;;0.10;0.10;;;;;;;15.16;39.61;102116.97;5074273;28;20111;-65
2023/04/20 05:49:18;;;;;;;0.10;0.10;;;;;;;15.06;39.85;102127.47;5074849;28;20040;-67
2023/04/20 05:51:43;;;;;;;0.20;0.20;;;;;;;16.01;37.84;102115.97;5073717;28;20484;-67
2023/04/20 05:54:09;;;;;;;0.10;0.10;;;;;;;15.61;38.59;102121.06;5073643;28;20373;-67
2023/04/20 05:56:34;;;;;;;0.10;0.10;;;;;;;15.07;40.11;102124.56;5073705;28;20054;-65
2023/04/20 05:59:00;;;;;;;0.20;0.20;;;;;;;15.07;40.62;102129.97;5073347;28;20450;-67
2023/04/20 06:01:26;;;;;;;0.10;0.10;;;;;;;15.07;42.32;102129.16;5054632;28;20044;-67
2023/04/20 06:03:51;;;;;;;0.10;0.10;;;;;;;14.46;43.51;102132.59;5076362;28;20553;-68
2023/04/20 06:06:17;;;;;;;0.20;0.20;;;;;;;13.94;45.64;102125.59;5093920;28;20086;-66
2023/04/20 06:08:42;;;;;;;0.15;0.15;;;;;;;14.63;45.00;102132.84;5093868;28;20039;-65
2023/04/20 06:11:08;;;;;;;0.30;0.30;;;;;;;14.04;45.89;102133.22;5053761;28;20032;-67
2023/04/20 06:13:33;;;;;;;0.10;0.10;;;;;;;14.13;46.45;102133.81;5078365;28;20035;-66
2023/04/20 06:15:59;;;;;;;0.15;0.15;;;;;;;14.13;47.42;102142.75;5072609;28;20067;-65
2023/04/20 06:18:24;;;;;;;0.20;0.20;;;;;;;13.85;48.39;102131.47;5077497;28;20123;-66
2023/04/20 06:20:50;;;;;;;0.10;0.10;;;;;;;14.42;47.25;102139.47;5092155;28;20060;-65
2023/04/20 06:23:15;;;;;;;0.10;0.10;;;;;;;14.17;48.23;102157.47;5091692;28;20464;-65
2023/04/20 06:25:40;;;;;;;0.10;0.10;;;;;;;14.12;48.75;102143.78;5091827;28;20024;-64
2023/04/20 06:28:07;;;;;;;0.10;0.10;;;;;;;13.47;51.01;102142.19;5076623;28;20027;-64
2023/04/20 06:30:33;;;;;;;0.20;0.20;;;;;;;13.80;51.05;102153.72;5071028;28;20037;-64
2023/04/20 06:33:02;;;;;;;0.10;0.10;;;;;;;13.52;50.69;102147.78;5071470;28;20045;-65
2023/04/20 06:35:27;;;;;;;0.20;0.20;;;;;;;13.48;51.73;102137.63;5071264;28;20028;-66
2023/04/20 06:37:56;;;;;;;0.10;0.10;;;;;;;13.10;52.56;102145.59;5083801;28;20107;-67
2023/04/20 06:40:22;;;;;;;0.17;0.17;;;;;;;13.65;51.90;102146.91;5083993;28;20052;-66
2023/04/20 06:42:47;;;;;;;0.20;0.20;;;;;;;13.52;53.05;102144.28;5069444;28;20192;-65
2023/04/20 06:45:12;;;;;;;0.13;0.13;;;;;;;13.53;51.82;102133.25;5090783;28;20124;-64
2023/04/20 06:47:38;;;;;;;0.20;0.20;;;;;;;13.52;51.70;102128.06;5080612;28;20473;-64
2023/04/20 06:50:08;;;;;;;0.20;0.20;;;;;;;13.74;51.61;102127.56;5070642;28;20039;-65
2023/04/20 06:52:37;;;;;;;0.30;0.30;;;;;;;14.38;50.08;102127.44;5071248;28;20338;-68
2023/04/20 06:55:02;;;;;;;0.20;0.20;;;;;;;14.72;49.78;102126.94;5070492;28;20032;-64
2023/04/20 06:57:28;;;;;;;0.17;0.17;;;;;;;14.57;49.03;102136.44;5070615;28;20037;-66
2023/04/20 06:59:53;;;;;;;0.30;0.30;;;;;;;14.76;48.39;102133.56;5070374;28;20041;-66
2023/04/20 07:02:18;;;;;;;0.10;0.10;;;;;;;14.91;49.82;102131.38;5062286;28;20047;-65
2023/04/20 07:04:44;;;;;;;0.20;0.20;;;;;;;15.18;49.00;102128.41;5090964;28;20024;-66
2023/04/20 07:07:09;;;;;;;0.10;0.10;;;;;;;14.53;50.39;102125.25;5090957;28;20024;-65
2023/04/20 07:09:34;;;;;;;0.10;0.10;;;;;;;14.66;50.08;102133.25;5065572;28;20054;-64
2023/04/20 07:12:01;;;;;;;0.20;0.20;;;;;;;15.34;48.49;102133.22;5090360;28;20160;-65
2023/04/20 07:14:26;;;;;;;0.30;0.30;;;;;;;15.12;50.02;102138.25;5090723;28;20112;-65
2023/04/20 07:16:52;;;;;;;0.20;0.20;;;;;;;15.62;47.73;102145.25;5091075;28;20638;-66
2023/04/20 07:19:18;;;;;;;0.20;0.20;;;;;;;14.72;50.64;102143.19;5077448;28;20031;-67
2023/04/20 07:21:43;;;;;;;0.13;0.13;;;;;;;14.93;49.02;102140.09;5086562;28;20591;-65
2023/04/20 07:24:08;;;;;;;0.20;0.20;;;;;;;15.13;50.05;102139.91;5090543;28;20040;-64
2023/04/20 07:26:34;;;;;;;0.22;0.22;;;;;;;15.38;48.57;102146.09;5090163;28;20043;-65
2023/04/20 07:28:59;;;;;;;0.10;0.10;;;;;;;15.11;49.39;102138.47;5079216;28;20107;-65
2023/04/20 07:31:25;;;;;;;0.10;0.10;;;;;;;14.81;48.56;102136.47;5070188;28;20059;-68
2023/04/20 07:33:50;;;;;;;0.22;0.22;;;;;;;14.45;50.45;102136.31;5070042;28;20047;-65
2023/04/20 07:36:15;;;;;;;0.20;0.20;;;;;;;14.73;50.15;102125.06;5070617;28;20094;-65
2023/04/20 07:38:41;;;;;;;0.10;0.10;;;;;;;14.41;51.40;102126.16;5070078;28;20072;-65
2023/04/20 07:41:10;;;;;;;0.20;0.20;;;;;;;15.05;49.48;102120.41;5056877;28;20043;-66
2023/04/20 07:43:35;;;;;;;0.13;0.13;;;;;;;15.10;49.83;102117.84;5070702;28;20460;-65
2023/04/20 07:46:01;;;;;;;0.20;0.20;;;;;;;15.08;49.35;102115.38;5069484;28;20043;-65
2023/04/20 07:48:26;;;;;;;0.15;0.15;;;;;;;14.11;51.97;102117.81;5070269;28;20037;-65
2023/04/20 07:50:51;;;;;;;0.30;0.30;;;;;;;14.66;49.64;102116.19;5074084;28;20047;-66
2023/04/20 07:53:17;;;;;;;0.10;0.10;;;;;;;14.84;49.31;102121.63;5070976;28;20040;-64
2023/04/20 07:55:42;;;;;;;0.10;0.10;;;;;;;14.75;49.71;102110.28;5089971;28;20035;-66
2023/04/20 07:58:08;;;;;;;0.10;0.10;;;;;;;14.89;49.70;102111.00;5068257;28;20067;-65
2023/04/20 08:00:33;;;;;;;0.22;0.22;;;;;;;15.04;50.50;102105.22;5089385;28;20047;-66
2023/04/20 08:02:59;;;;;;;0.20;0.20;;;;;;;15.75;47.95;102117.13;5090275;28;20443;-66
2023/04/20 08:05:24;;;;;;;0.20;0.20;;;;;;;15.46;49.43;102112.50;5089779;28;20120;-66
2023/04/20 08:07:50;;;;;;;0.20;0.20;;;;;;;14.30;53.24;102119.59;5071400;28;20025;-66
2023/04/20 08:10:15;;;;;;;0.20;0.20;;;;;;;14.68;50.79;102112.19;5069295;28;20059;-65
2023/04/20 08:12:41;;;;;;;0.13;0.13;;;;;;;15.55;49.63;102119.25;5069350;28;20044;-65
2023/04/20 08:15:07;;;;;;;0.30;0.30;;;;;;;15.60;48.99;102120.25;5067549;28;20045;-66
2023/04/20 08:17:32;;;;;;;0.20;0.20;;;;;;;15.65;47.68;102106.00;5071011;28;20076;-65
2023/04/20 08:19:58;;;;;;;0.20;0.20;;;;;;;15.31;47.63;102117.44;5069429;28;20061;-65
2023/04/20 08:22:26;;;;;;;0.10;0.10;;;;;;;15.10;49.46;102117.84;5068875;28;20024;-64
2023/04/20 08:24:51;;;;;;;0.20;0.20;;;;;;;14.95;48.91;102121.78;5089286;28;20059;-65
2023/04/20 08:27:17;;;;;;;0.10;0.10;;;;;;;14.45;50.18;102117.38;5078645;28;20472;-65
2023/04/20 08:29:42;;;;;;;0.20;0.20;;;;;;;14.57;49.97;102122.91;5063962;28;20503;-65
2023/04/20 08:32:08;;;;;;;0.20;0.20;;;;;;;14.26;50.08;102123.75;5070478;28;20097;-64
2023/04/20 08:34:34;;;;;;;0.13;0.13;;;;;;;14.53;50.07;102117.13;5072342;28;20105;-64
2023/04/20 08:36:59;;;;;;;0.20;0.20;;;;;;;14.48;50.43;102113.44;5090949;28;20032;-66
2023/04/20 08:39:25;;;;;;;0.20;0.20;;;;;;;15.25;49.10;102102.91;5082277;28;20040;-65
2023/04/20 08:41:54;;;;;;;0.20;0.20;;;;;;;15.34;48.20;102103.44;5050600;28;20044;-66
2023/04/20 08:44:20;;;;;;;0.20;0.20;;;;;;;14.99;49.19;102097.78;5069518;28;20060;-66
2023/04/20 08:46:47;;;;;;;0.22;0.22;;;;;;;14.57;50.08;102099.41;5069340;28;20129;-66
2023/04/20 08:49:15;;;;;;;0.20;0.20;;;;;;;15.72;49.63;102106.75;5070684;28;20431;-66
2023/04/20 08:51:41;;;;;;;0.20;0.20;;;;;;;15.38;47.66;102100.06;5076934;28;20043;-65
2023/04/20 08:54:07;;;;;;;0.15;0.15;;;;;;;15.90;47.26;102097.78;5068426;28;20040;-66
2023/04/20 08:56:34;;;;;;;0.22;0.22;;;;;;;15.79;46.58;102102.06;5086158;28;20338;-66
2023/04/20 08:59:02;;;;;;;0.20;0.20;;;;;;;15.97;46.62;102101.22;5073408;28;20059;-65
2023/04/20 09:01:28;;;;;;;0.20;0.20;;;;;;;16.09;46.66;102105.63;5079673;28;20044;-65
2023/04/20 09:03:53;;;;;;;0.20;0.20;;;;;;;16.77;45.32;102111.44;5068986;28;20427;-65
2023/04/20 09:06:18;;;;;;;0.20;0.20;;;;;;;15.86;46.45;102104.72;5079191;28;20666;-65
2023/04/20 09:08:45;;;;;;;0.10;0.10;;;;;;;15.58;47.28;102113.41;5083372;28;20032;-66
2023/04/20 09:11:28;;;;;;;0.15;0.10;;;;;;;16.00;46.42;102104.28;5068489;28;20029;-66
2023/04/20 09:14:06;;;;;;;0.13;0.13;;;;;;;16.71;45.72;102100.72;5050376;28;20031;-67
2023/04/20 09:16:33;;;;;;;0.30;0.30;;;;;;;15.68;47.30;102095.53;5069103;28;20016;-67
2023/04/20 09:18:59;;;;;;;0.20;0.20;;;;;;;15.82;47.71;102094.31;5069115;28;20040;-65
2023/04/20 09:21:27;;;;;;;0.17;0.17;;;;;;;17.05;45.34;102089.03;5068643;28;20590;-66
2023/04/20 09:24:00;;;;;;;0.10;0.10;;;;;;;17.08;44.95;102094.00;5050466;28;20630;-65
2023/04/20 09:26:26;;;;;;;0.20;0.20;;;;;;;17.49;44.66;102088.41;5068863;28;20393;-67
2023/04/20 09:28:52;;;;;;;0.20;0.20;;;;;;;18.50;42.01;102072.06;5068722;28;20111;-66
2023/04/20 09:31:21;;;;;;;0.10;0.10;;;;;;;17.45;43.00;102082.56;5068955;28;20024;-65
2023/04/20 09:34:00;;;;;;;0.10;0.10;;;;;;;17.19;43.63;102085.84;5068585;28;20048;-66
2023/04/20 09:36:49;;;;;;;0.10;0.10;;;;;;;17.63;42.88;102087.03;5077007;28;20036;-66
2023/04/20 09:39:19;;;;;;;0.10;0.10;;;;;;;17.06;44.47;102088.78;5072549;28;20037;-66
2023/04/20 09:41:45;;;;;;;0.20;0.20;;;;;;;16.95;44.66;102086.06;5092685;28;20040;-68
2023/04/20 09:44:12;;;;;;;0.20;0.20;;;;;;;17.98;41.85;102084.19;5092285;28;20028;-67
2023/04/20 09:46:39;;;;;;;0.10;0.10;;;;;;;19.09;40.83;102078.69;5093034;28;20632;-66
2023/04/20 09:49:07;;;;;;;0.20;0.20;;;;;;;18.85;40.59;102063.66;5092769;28;20101;-67
2023/04/20 09:51:35;;;;;;;0.20;0.20;;;;;;;18.96;39.97;102074.44;5080774;28;20045;-66
2023/04/20 09:54:02;;;;;;;0.10;0.10;;;;;;;18.37;40.21;102067.78;5073789;28;20443;-65
2023/04/20 09:56:29;;;;;;;0.20;0.20;;;;;;;18.84;39.85;102064.72;5091951;28;20089;-65
2023/04/20 09:58:55;;;;;;;0.20;0.20;;;;;;;19.06;40.67;102062.84;5092525;28;20024;-67
2023/04/20 10:01:22;;;;;;;0.10;0.10;;;;;;;17.85;41.51;102073.59;5057261;28;20434;-67
2023/04/20 10:03:48;;;;;;;0.20;0.20;;;;;;;18.33;40.50;102061.16;5091793;28;20514;-67
2023/04/20 10:06:31;;;;;;;0.10;0.10;;;;;;;18.73;39.61;102057.47;5088467;28;20506;-66
2023/04/20 10:08:57;;;;;;;0.10;0.10;;;;;;;19.43;40.63;102063.94;5078240;28;20044;-65
2023/04/20 10:11:35;;;;;;;0.20;0.20;;;;;;;18.49;40.08;102054.09;5070404;28;20028;-66
2023/04/20 10:14:22;;;;;;;0.20;0.20;;;;;;;19.10;39.39;102051.19;5071627;28;20431;-64
2023/04/20 10:16:59;;;;;;;0.20;0.17;;;;;;;18.02;40.37;102052.72;5071444;28;20369;-65
2023/04/20 10:19:41;;;;;;;0.20;0.10;;;;;;;18.65;39.95;102049.72;5071803;28;20024;-66
2023/04/20 10:22:09;;;;;;;0.13;0.13;;;;;;;18.25;40.05;102049.84;5053694;28;20056;-66
2023/04/20 10:24:37;;;;;;;0.20;0.20;;;;;;;17.30;41.81;102051.53;5072338;28;20484;-65
2023/04/20 10:27:03;;;;;;;0.20;0.20;;;;;;;18.47;40.47;102044.53;5091823;28;20089;-65
2023/04/20 10:29:30;;;;;;;0.20;0.20;;;;;;;18.97;40.34;102034.38;5076528;28;20447;-65
2023/04/20 10:31:56;;;;;;;0.20;0.20;;;;;;;18.42;40.73;102028.91;5080550;28;20016;-66
2023/04/20 10:34:34;;;;;;;0.20;0.20;;;;;;;18.93;38.78;102028.63;5092694;28;20388;-65
2023/04/20 10:37:10;;;;;;;0.10;0.10;;;;;;;18.98;39.14;102030.59;5078039;28;20510;-67
2023/04/20 10:39:42;;;;;;;0.10;0.10;;;;;;;18.21;39.74;102018.75;5069382;28;20086;-68
2023/04/20 10:42:08;;;;;;;0.10;0.10;;;;;;;18.31;39.70;102017.06;5091131;28;20038;-65
2023/04/20 10:44:34;;;;;;;0.20;0.20;;;;;;;18.58;39.85;102009.03;5091069;28;20122;-69
2023/04/20 10:47:00;;;;;;;0.05;0.05;;;;;;;18.39;40.26;102008.47;5090730;28;20092;-66
2023/04/20 10:49:27;;;;;;;0.10;0.10;;;;;;;18.26;41.24;102027.00;5062932;28;20048;-66
2023/04/20 10:51:53;;;;;;;0.20;0.20;;;;;;;17.79;41.99;102031.09;5072001;28;20495;-67
2023/04/20 10:54:18;;;;;;;0.10;0.10;;;;;;;17.78;41.14;102019.38;5091010;28;20042;-66
2023/04/20 10:56:46;;;;;;;0.20;0.20;;;;;;;18.06;41.21;102021.25;5090331;28;20020;-65
2023/04/20 10:59:13;;;;;;;0.20;0.20;;;;;;;18.93;39.46;102016.88;5090092;28;20032;-65
2023/04/20 11:01:40;;;;;;;0.10;0.10;;;;;;;18.01;40.50;102008.38;5075544;28;20086;-68
2023/04/20 11:04:06;;;;;;;0.13;0.13;;;;;;;18.45;39.11;102006.69;5090787;28;20027;-65
2023/04/20 11:06:32;;;;;;;0.10;0.10;;;;;;;18.65;39.51;102004.25;5090365;28;20138;-65
2023/04/20 11:08:58;;;;;;;0.20;0.20;;;;;;;18.73;39.04;102008.47;5088762;28;20071;-65
2023/04/20 11:11:28;;;;;;;0.10;0.10;;;;;;;18.33;39.43;101995.84;5083259;28;20637;-65
2023/04/20 11:14:10;;;;;;;0.10;0.10;;;;;;;18.80;38.65;102007.19;5090504;28;20028;-66
2023/04/20 11:16:36;;;;;;;0.10;0.10;;;;;;;18.20;39.36;102012.50;5087514;28;20368;-66
2023/04/20 11:19:03;;;;;;;0.10;0.10;;;;;;;19.29;37.96;102010.81;5090769;28;20028;-66
2023/04/20 11:21:39;;;;;;;0.20;0.20;;;;;;;18.93;38.49;102004.09;5071679;28;20036;-66